Providence Village's Hourly Summary for Wednesday, July 11, 2018
Hour Temp
(f)
RH
(%)
Solar Rad.
(MJ/m2)
Rainfall
(in)
Wind
(mph)
7/11/2018 12:00 AM 80 75 0 0 1.71
7/11/2018 1:00 AM 79 78 0 0 1.01
7/11/2018 2:00 AM 78 80 0 0 0.9
7/11/2018 3:00 AM 75 91 0 0 0.67
7/11/2018 4:00 AM 75 93 0 0 0.02
7/11/2018 5:00 AM 75 91 0 0 0.09
7/11/2018 6:00 AM 74 92 0 0 0.02
7/11/2018 7:00 AM 74 93 0.01 0 0.68
7/11/2018 8:00 AM 76 87 0.15 0 0.52
7/11/2018 9:00 AM 80 67 0.87 0 3.24
7/11/2018 10:00 AM 85 61 1.1 0 3.98
7/11/2018 11:00 AM 87 51 2.4 0 3.91
7/11/2018 12:00 PM 90 46 2.65 0 4.25
7/11/2018 1:00 PM 91 46 2.75 0 5
7/11/2018 2:00 PM 93 38 3.31 0 5.21
7/11/2018 3:00 PM 95 34 2.97 0 5.62
7/11/2018 4:00 PM 94 37 1.95 0 4.56
7/11/2018 5:00 PM 96 35 2.73 0 4.94
7/11/2018 6:00 PM 96 34 2.13 0 5.5
7/11/2018 7:00 PM 95 38 1.03 0 6.16
7/11/2018 8:00 PM 91 39 0.32 0 5.5
7/11/2018 9:00 PM 91 44 0.07 0 2.62
7/11/2018 10:00 PM 90 49 0 0 5.09
7/11/2018 11:00 PM 88 52 0 0 5.09
Data Summary 85 60 24.44 0.00 3.18